Latest Observation

39 Stations

15 Minute Data | America/Los_Angeles
as of 5/9/21 2:45 PM PDT
Station Date Time Temp (°F) RH (%) Dew Pt (°F) Wind Dir (°) Wind Spd (mph) Wind Gust (mph) Solar Rad (W/m2) Latest Rain (In) Daily Rain (In) Daily Max Temp (°F) Daily Min Temp (°F) Daily Max Wind (mph) Daily ETo (in) Daily Leaf Wet Hrs (hrs)
Colony 1 5/9/21 1445 85.5   0.3 18   6 36.8   11.0 NW | 309 6.5   4.6 13.8   6.5 945   16 0.00 0.00 86.2   0.3 49.4   0.1 15.9   10.8 0.148   0.036 -
Colony 2 5/9/21 1445 87.4   1.5 18   5 38.5   10.3 NW | 318 5.1   6.4 9.9   12.0 892   20 0.00 0.00 88.5   2.1 51.6   0.4 13.6   10.5 0.146   0.027 -
5 Wells 5/9/21 1445 84.9   0.4 19   6 37.5   8.5 WNW | 294 7.4   3.7 15.3   3.5 891   18 0.00 0.00 85.7   0.1 47.3   1.7 16.1   9.7 0.141   0.029 -
Simmerhorn 5/9/21 1445 84.6   0.4 18   7 36.7   12.0 - - - - - - 85.6   0.7 46.1   2.9 - - -
Galt-East 5/9/21 1445 84.3   0.4 21   8 40.1   11.8 WNW | 290 6.0   4.1 13.8   4.3 841   19 0.00 0.00 84.8   0.4 48.0   1.0 14.6   5.8 0.128   0.019 -
Borden Hills 5/9/21 1445 86.6   0.4 23   7 44.8   8.9 NW | 315 6.8   3.7 14.0   4.3 877   22 0.00 0.00 87.5   0.0 49.7   1.6 20.6   0.6 0.136   0.018 -
Sierra Loma-L27 5/9/21 1445 85.4   0.4 22   8 42.3   10.4 WSW | 249 6.1   5.7 11.0   11.1 - 0.00 0.00 86.3   0.6 49.1   0.0 16.6   6.7 - -
Lockeford 5/9/21 1445 84.4   0.0 18   6 36.5   9.2 NNW | 346 5.8   2.6 12.5   5.7 831   11 0.00 0.00 85.0   0.1 46.6   0.8 14.5   4.0 0.130   0.019 0.0   0.0
Lone Oak-L28 5/9/21 1445 83.6   0.3 24   7 42.8   8.4 NW | 310 7.3   1.2 11.7   2.4 - 0.00 0.00 85.0   0.6 43.4   2.4 15.6   2.9 - -
Kost Rd 5/9/21 1445 86.0   0.1 21   7 42.0   10.5 NW | 314 7.6   1.0 15.0   2.6 815   16 0.00 0.00 86.9   0.5 61.5   4.2 17.1   5.8 0.148   0.010 -
Thornton 5/9/21 1445 84.9   0.4 19   8 38.7   12.9 NW | 311 8.5   4.6 14.5   11.1 922   17 0.00 0.00 85.4   0.4 63.7   7.6 19.2   6.7 0.104   0.028 0.0   0.0
Lodi (LangeTwins) 5/9/21 1445 86.2   0.5 21   7 41.4   11.3 NNW | 332 7.1   5.6 12.1   9.0 862   15 0.00 0.00 87.0   0.4 62.4   3.6 16.5   8.0 0.159   0.018 0.0   0.0
Gilbeau Ranch 5/9/21 1445 85.6   0.3 16   6 34.0   11.1 NW | 320 4.8   1.8 10.8   4.0 951   16 0.00 0.00 86.7   0.9 48.1   2.8 16.6   1.2 0.122   0.020 -
Galt West 5/9/21 1445 86.0   1.1 21   7 42.1   11.1 NNW | 338 7.0   5.1 12.7   7.2 841   21 0.00 0.00 86.6   0.9 62.6   7.3 16.7   7.2 0.161   0.017 -
Valley Oak 5/9/21 1445 85.9   0.5 18   7 37.0   12.8 NW | 321 6.2   2.8 12.9   4.6 853   22 0.00 0.00 86.7   0.7 59.7   1.0 17.5   4.2 0.151   0.016 -
Guard Rd (Lodi WSW) 5/9/21 1445 86.1   1.0 22   8 42.4   12.2 NW | 325 5.8   2.5 12.2   6.8 901   18 0.00 0.00 87.0   1.5 57.6   0.9 22.0   2.4 0.157   0.012 0.0   0.0
Linden 5/9/21 1445 84.5   1.0 23   6 42.3   9.1 NW | 313 5.5   1.6 11.6   3.9 - 0.00 0.00 85.1   1.2 45.1   1.1 12.8   5.8 - 8.3   1.0
DeVries Road-North 5/9/21 1445 85.2   1.5 24   7 44.0   10.3 NW | 308 5.9   3.4 12.0   7.2 843   18 0.00 0.00 86.1   1.2 53.6   3.7 15.9   4.4 0.142   0.010 -
Acampo 5/9/21 1445 85.2   0.6 18   6 36.3   11.8 WNW | 296 8.0   1.6 15.8   2.7 879   15 - 0.00 85.5   0.5 51.9   6.1 15.8   3.7 0.142   0.017 0.0   0.0
Acampo (Woodbridge) 5/9/21 1445 85.4   0.4 18   7 37.0   12.3 NW | 311 9.0   2.1 18.1   1.7 903   18 0.00 0.00 86.0   0.4 53.2   2.1 18.5   3.6 0.152   0.021 -
Lodi West 5/9/21 1445 86.2   0.5 17   6 36.4   11.4 NW | 322 5.3   0.2 15.8   0.7 903   31 0.00 0.00 86.7   0.5 60.4   4.1 17.1   6.6 0.140   0.008 13.8   0.0
Teresi-Alpine Rd (East Lodi) 5/9/21 1445 86.1   0.6 18   7 37.0   12.5 NNW | 329 7.6   4.1 13.2   5.8 580   21 0.00 0.00 86.9   0.9 51.0   2.8 17.7   5.5 - -
Victor - N (Katusha) 5/9/21 1445 84.6   0.8 18   6 35.9   10.7 NNW | 335 5.6   3.6 11.5   4.4 - 0.00 0.00 86.0   1.5 49.0   3.4 - - -
Live Oak 5/9/21 1445 85.9   0.5 20   7 40.3   10.9 NW | 304 4.9   2.4 10.6   6.1 874   10 0.00 0.00 86.3   0.6 51.3   2.8 17.8   1.4 0.138   0.010 -
Sheldon 5/9/21 1445 85.7   0.2 18   6 37.8   10.5 NW | 322 6.7   5.0 13.5   8.4 880   19 0.00 0.00 86.1   0.6 50.0   1.2 19.2   5.4 0.149   0.028 0.0   0.0
Sloughhouse 5/9/21 1445 86.0   0.5 16   6 35.4   10.8 NW | 307 7.1   4.4 12.8   9.4 814   6 0.00 0.00 86.8   0.8 42.3   1.2 16.8   8.4 0.134   0.022 -
Utter - Wilson 5/9/21 1445 88.1   2.3 20   4 41.6   8.0 NW | 326 9.4   5.2 16.6   10.2 872   9 0.00 0.00 89.6   2.5 64.2   4.0 23.7   10.3 0.184   0.017 -
Clarksburg 5/9/21 1445 86.6   2.1 14   5 32.4   11.2 NNW | 343 7.2   6.0 16.4   5.3 942   10 0.00 0.00 87.5   2.3 65.6   4.2 25.6   6.1 0.192   0.009 -
Clarksburg-3A2 5/9/21 1445 85.9   1.7 17   4 35.9   7.5 N | 11 13.1   7.1 19.7   7.2 836   12 0.00 0.00 87.2   2.6 64.1   6.2 26.1   9.0 0.203   0.009 -
Gorter - Wilson 5/9/21 1445 87.3   2.3 22   5 44.0   8.7 NNW | 336 7.5   5.2 13.7   6.8 896   11 0.00 0.00 88.7   3.0 63.9   5.0 25.7   2.5 0.150   0.007 -
Hood 5/9/21 1445 84.7   0.9 21   6 40.1   9.0 NNW | 336 6.6   2.3 14.1   3.9 842   11 0.00 0.00 85.1   0.7 64.8   4.7 18.3   8.0 0.156   0.005 -
Courtland-C3 5/9/21 1445 86.7   2.1 21   6 42.0   10.3 NW | 324 8.9   7.2 16.8   7.4 - 0.00 0.00 87.6   2.1 63.9   4.3 23.0   9.4 - -
Pacific Fruit 5/9/21 1445 87.4   1.4 20   5 41.9   9.0 NNW | 340 4.1   1.2 11.1   5.4 849   12 0.00 0.00 88.8   1.4 65.7   4.8 18.0   5.1 0.145   0.010 -
Ryer Island South 5/9/21 1400 84.9   1.6 21   8 41.0   12.8 NNW | 347 6.5   3.4 13.6   7.7 918   22 0.00 0.00 85.5   1.6 64.1   3.4 21.6   8.3 0.176   0.013 0.0   0.0
Farmington (Mobley100) 5/9/21 1445 83.4   0.9 25   5 43.9   6.1 NW | 317 2.1   0.4 6.3   2.0 - - - 83.7   0.8 48.5   1.4 10.0   1.1 - -
Collegeville 5/9/21 1445 84.5   2.0 23   4 42.6   6.9 NNW | 333 3.6   2.1 10.7   2.0 861   8 0.00 0.00 85.3   1.9 51.4   3.9 15.7   1.2 0.133   0.006 -
Oakdale North (28 Mile Rd) 5/9/21 1445 82.9   1.0 25   7 43.1   9.0 WNW | 297 1.3   1.3 4.5   6.8 - - - 83.4   1.2 47.9   3.6 11.0   0.4 - -
Escalon 5/9/21 1445 85.5   3.4 23   5 43.5   9.6 NNW | 335 3.4   3.3 8.3   5.2 - 0.00 0.00 86.2   3.3 57.6   5.2 15.3   2.2 - 0.0   0.0
Claussen 5/9/21 1445 85.0   1.0 25   6 45.0   8.3 NNW | 328 8.8   0.9 15.2   2.1 940   5 0.00 0.00 86.4   2.0 59.1   0.4 20.1   5.4 0.158   0.010 -
Max     88.1 25 45.0 - 13.1 19.7 951 0.00 0.00 89.6 65.7 26.1 0.203 13.8
Avg     85.5 20 39.8 - 6.5 13.0 868 0.00 - - - - - -
Min     82.9 14 32.4 - 1.3 4.5 580 0.00 0.00 83.4 42.3 10.0 0.104 0.0